createdAt,value
2019-05-10T00:01:46.636Z,1.10
2019-05-10T00:04:31.729Z,1.07
2019-05-10T00:07:16.788Z,1.00
2019-05-10T00:09:43.136Z,1.23
2019-05-10T00:12:18.682Z,1.20
2019-05-10T00:14:48.356Z,1.10
2019-05-10T00:17:22.088Z,1.10
2019-05-10T00:19:49.788Z,1.00
2019-05-10T00:22:17.316Z,1.10
2019-05-10T00:24:54.118Z,1.40
2019-05-10T00:27:13.043Z,1.20
2019-05-10T00:29:39.918Z,1.87
2019-05-10T00:32:06.963Z,1.13
2019-05-10T00:34:33.642Z,1.13
2019-05-10T00:37:00.324Z,1.40
2019-05-10T00:39:27.667Z,1.27
2019-05-10T00:41:54.608Z,1.27
2019-05-10T00:44:21.291Z,1.33
2019-05-10T00:46:47.976Z,1.50
2019-05-10T00:49:14.932Z,1.33
2019-05-10T00:51:41.658Z,1.43
2019-05-10T00:54:08.580Z,1.57
2019-05-10T00:56:35.265Z,2.30
2019-05-10T00:59:02.210Z,2.20
2019-05-10T01:01:28.995Z,2.17
2019-05-10T01:03:55.701Z,1.60
2019-05-10T01:06:22.485Z,1.67
2019-05-10T01:08:49.424Z,2.23
2019-05-10T01:11:16.137Z,2.70
2019-05-10T01:13:42.855Z,2.50
2019-05-10T01:16:09.533Z,1.90
2019-05-10T01:18:36.243Z,2.23
2019-05-10T01:21:03.145Z,2.10
2019-05-10T01:23:29.856Z,2.17
2019-05-10T01:25:56.573Z,2.20
2019-05-10T01:28:23.261Z,1.90
2019-05-10T01:30:50.377Z,2.07
2019-05-10T01:33:17.115Z,2.10
2019-05-10T01:35:43.936Z,1.87
2019-05-10T01:38:10.621Z,2.43
2019-05-10T01:40:37.630Z,1.87
2019-05-10T01:43:04.517Z,1.90
2019-05-10T01:45:31.333Z,2.33
2019-05-10T01:47:58.007Z,1.77
2019-05-10T01:50:24.735Z,2.20
2019-05-10T01:52:51.576Z,2.17
2019-05-10T01:55:18.483Z,1.93
2019-05-10T01:57:45.241Z,2.30
2019-05-10T02:00:12.801Z,2.03
2019-05-10T02:02:39.523Z,2.37
2019-05-10T02:05:06.541Z,2.23
2019-05-10T02:07:33.254Z,2.30
2019-05-10T02:10:00.181Z,2.10
2019-05-10T02:12:26.895Z,1.90
2019-05-10T02:14:53.774Z,2.60
2019-05-10T02:17:20.724Z,2.20
2019-05-10T02:19:47.517Z,2.50
2019-05-10T02:22:14.257Z,1.90
2019-05-10T02:24:40.944Z,2.20
2019-05-10T02:27:07.774Z,2.07
2019-05-10T02:29:34.485Z,2.03
2019-05-10T02:32:01.278Z,2.17
2019-05-10T02:34:27.997Z,2.30
2019-05-10T02:36:54.741Z,1.97
2019-05-10T02:39:21.540Z,1.97
2019-05-10T02:41:48.500Z,2.63
2019-05-10T02:44:15.211Z,2.10
2019-05-10T02:46:41.913Z,2.40
2019-05-10T02:49:08.610Z,2.30
2019-05-10T02:51:35.312Z,1.80
2019-05-10T02:54:02.188Z,1.73
2019-05-10T02:56:31.621Z,1.80
2019-05-10T02:59:00.100Z,2.20
2019-05-10T03:01:29.761Z,2.20
2019-05-10T03:04:00.128Z,2.10
2019-05-10T03:06:29.539Z,2.73
2019-05-10T03:08:56.277Z,2.50
2019-05-10T03:11:27.420Z,2.30
2019-05-10T03:13:57.944Z,2.13
2019-05-10T03:16:24.918Z,2.20
2019-05-10T03:18:52.473Z,1.93
2019-05-10T03:21:21.344Z,2.17
2019-05-10T03:23:48.656Z,1.80
2019-05-10T03:26:15.474Z,1.90
2019-05-10T03:28:42.536Z,1.77
2019-05-10T03:31:09.555Z,2.13
2019-05-10T03:33:36.696Z,1.50
2019-05-10T03:36:04.103Z,1.73
2019-05-10T03:38:31.307Z,2.27
2019-05-10T03:40:58.500Z,2.10
2019-05-10T03:43:25.216Z,2.23
2019-05-10T03:45:51.934Z,1.80
2019-05-10T03:48:18.644Z,1.63
2019-05-10T03:50:45.590Z,1.70
2019-05-10T03:53:12.296Z,2.23
2019-05-10T03:55:39.091Z,1.90
2019-05-10T03:58:06.161Z,1.77
2019-05-10T04:00:33.554Z,2.23
2019-05-10T04:03:00.611Z,1.90
2019-05-10T04:05:27.321Z,2.00
2019-05-10T04:07:54.015Z,2.27
2019-05-10T04:10:21.212Z,2.73
2019-05-10T04:12:48.135Z,2.63
2019-05-10T04:15:14.934Z,2.83
2019-05-10T04:17:41.998Z,2.00
2019-05-10T04:20:09.178Z,2.33
2019-05-10T04:22:36.197Z,3.00
2019-05-10T04:25:03.670Z,2.63
2019-05-10T04:27:32.878Z,3.33
2019-05-10T04:29:59.229Z,3.13
2019-05-10T04:32:26.043Z,2.40
2019-05-10T04:34:52.769Z,2.60
2019-05-10T04:37:19.578Z,2.67
2019-05-10T04:39:46.801Z,2.87
2019-05-10T04:42:13.603Z,2.77
2019-05-10T04:44:40.322Z,2.53
2019-05-10T04:47:07.400Z,3.07
2019-05-10T04:49:34.085Z,2.57
2019-05-10T04:52:00.828Z,3.13
2019-05-10T04:54:27.867Z,2.57
2019-05-10T04:56:54.559Z,3.10
2019-05-10T04:59:21.242Z,2.33
2019-05-10T05:01:48.288Z,2.03
2019-05-10T05:04:14.988Z,1.90
2019-05-10T05:06:41.983Z,2.20
2019-05-10T05:09:08.705Z,2.00
2019-05-10T05:11:35.391Z,1.63
2019-05-10T05:14:02.193Z,1.27
2019-05-10T05:16:29.257Z,2.03
2019-05-10T05:18:55.944Z,1.83
2019-05-10T05:21:22.724Z,2.20
2019-05-10T05:23:49.479Z,2.20
2019-05-10T05:26:16.285Z,2.17
2019-05-10T05:28:43.005Z,1.90
2019-05-10T05:31:09.727Z,1.90
2019-05-10T05:33:36.450Z,2.12
2019-05-10T05:36:03.211Z,2.65
2019-05-10T05:38:29.931Z,2.17
2019-05-10T05:40:56.718Z,2.10
2019-05-10T05:43:24.071Z,2.15
2019-05-10T05:45:51.096Z,1.87
2019-05-10T05:48:21.282Z,2.02
2019-05-10T05:50:46.448Z,3.00
2019-05-10T05:53:13.871Z,2.30
2019-05-10T05:55:40.656Z,2.12
2019-05-10T05:58:25.332Z,2.85
2019-05-10T06:00:44.868Z,2.72
2019-05-10T06:03:05.629Z,2.15
2019-05-10T06:05:34.953Z,2.77
2019-05-10T06:08:00.961Z,1.95
2019-05-10T06:10:27.991Z,2.27
2019-05-10T06:12:54.735Z,2.30
2019-05-10T06:15:23.004Z,2.12
2019-05-10T06:17:56.502Z,2.40
2019-05-10T06:20:18.784Z,2.30
2019-05-10T06:23:04.960Z,1.90
2019-05-10T06:25:14.595Z,2.27
2019-05-10T06:27:43.233Z,1.90
2019-05-10T06:30:10.881Z,2.20
2019-05-10T06:32:37.584Z,1.77
2019-05-10T06:35:04.525Z,1.90
2019-05-10T06:37:31.556Z,2.45
2019-05-10T06:39:58.365Z,2.22
2019-05-10T06:42:28.888Z,1.98
2019-05-10T06:44:54.669Z,1.98
2019-05-10T06:47:22.099Z,2.12
2019-05-10T06:49:51.983Z,2.35
2019-05-10T06:52:22.016Z,2.05
2019-05-10T06:54:47.364Z,2.02
2019-05-10T06:57:17.368Z,2.30
2019-05-10T06:59:42.913Z,1.90
2019-05-10T07:02:09.709Z,1.82
2019-05-10T07:04:40.921Z,2.30
2019-05-10T07:07:10.191Z,2.10
2019-05-10T07:10:00.506Z,2.62
2019-05-10T07:12:03.182Z,2.20
2019-05-10T07:14:29.904Z,2.27
2019-05-10T07:17:02.560Z,1.95
2019-05-10T07:19:28.709Z,2.10
2019-05-10T07:21:55.351Z,1.98
2019-05-10T07:24:25.432Z,2.37
2019-05-10T07:26:56.397Z,2.35
2019-05-10T07:29:29.615Z,1.77
2019-05-10T07:31:48.922Z,2.00
2019-05-10T07:34:17.590Z,2.47
2019-05-10T07:36:44.512Z,1.92
2019-05-10T07:39:11.207Z,2.00
2019-05-10T07:41:38.180Z,1.87
2019-05-10T07:44:07.695Z,2.45
2019-05-10T07:46:33.748Z,2.05
2019-05-10T07:49:00.811Z,1.77
2019-05-10T07:51:28.668Z,1.45
2019-05-10T07:54:04.070Z,1.42
2019-05-10T07:56:25.641Z,1.65
2019-05-10T07:58:52.359Z,2.25
2019-05-10T08:01:30.386Z,1.60
2019-05-10T08:03:52.415Z,1.62
2019-05-10T08:06:19.231Z,1.35
2019-05-10T08:08:45.837Z,1.35
2019-05-10T08:11:12.645Z,1.22
2019-05-10T08:13:39.581Z,1.37
2019-05-10T08:16:11.822Z,1.72
2019-05-10T08:18:35.044Z,1.57
2019-05-10T08:21:05.125Z,3.98
2019-05-10T08:23:30.366Z,0.98
2019-05-10T08:25:57.087Z,3.22
2019-05-10T08:28:28.066Z,1.40
2019-05-10T08:30:58.533Z,1.45
2019-05-10T08:33:22.933Z,1.00
2019-05-10T08:35:52.456Z,0.82
2019-05-10T08:38:18.463Z,1.07
2019-05-10T08:40:45.154Z,1.35
2019-05-10T08:43:15.984Z,1.07
2019-05-10T08:45:45.114Z,1.00
2019-05-10T08:48:09.988Z,1.20
2019-05-10T08:50:49.459Z,1.30
2019-05-10T08:53:10.935Z,0.90
2019-05-10T08:55:34.135Z,1.20
2019-05-10T08:58:02.930Z,1.30
2019-05-10T09:00:45.652Z,1.00
2019-05-10T09:03:01.013Z,0.80
2019-05-10T09:05:29.392Z,0.93
2019-05-10T09:07:56.615Z,1.00
2019-05-10T09:10:23.540Z,1.10
2019-05-10T09:12:57.924Z,1.22
2019-05-10T09:15:22.271Z,0.93
2019-05-10T09:17:49.621Z,0.70
2019-05-10T09:20:21.892Z,1.00
2019-05-10T09:22:45.780Z,1.00
2019-05-10T09:25:13.094Z,1.10
2019-05-10T09:27:40.006Z,1.10
2019-05-10T09:30:08.112Z,0.93
2019-05-10T09:32:36.009Z,1.10
2019-05-10T09:35:07.729Z,0.82
2019-05-10T09:37:32.091Z,1.00
2019-05-10T09:40:08.094Z,0.85
2019-05-10T09:42:35.063Z,0.80
2019-05-10T09:44:56.476Z,0.87
2019-05-10T09:47:23.480Z,0.97
2019-05-10T09:49:56.656Z,1.30
2019-05-10T09:52:18.978Z,1.10
2019-05-10T09:54:49.202Z,1.00
2019-05-10T09:57:14.726Z,1.37
2019-05-10T09:59:41.735Z,0.70
2019-05-10T10:02:14.280Z,1.00
2019-05-10T10:04:37.276Z,1.00
2019-05-10T10:07:04.228Z,0.97
2019-05-10T10:09:37.380Z,1.17
2019-05-10T10:12:03.016Z,0.93
2019-05-10T10:14:28.525Z,1.03
2019-05-10T10:17:00.283Z,1.00
2019-05-10T10:19:27.644Z,0.73
2019-05-10T10:21:54.660Z,0.70
2019-05-10T10:24:21.351Z,0.90
2019-05-10T10:26:48.296Z,0.80
2019-05-10T10:29:17.266Z,0.60
2019-05-10T10:31:54.609Z,1.10
2019-05-10T10:34:13.502Z,1.27
2019-05-10T10:36:43.922Z,0.83
2019-05-10T10:39:09.065Z,0.83
2019-05-10T10:41:36.022Z,0.80
2019-05-10T10:44:03.146Z,0.97
2019-05-10T10:46:29.964Z,0.60
2019-05-10T10:48:56.765Z,1.00
2019-05-10T10:51:26.434Z,0.60
2019-05-10T10:53:54.636Z,0.77
2019-05-10T10:56:20.937Z,0.90
2019-05-10T10:58:50.045Z,0.80
2019-05-10T11:01:21.540Z,0.90
2019-05-10T11:03:48.609Z,1.00
2019-05-10T11:06:15.404Z,0.93
2019-05-10T11:08:42.365Z,1.10
2019-05-10T11:11:10.610Z,0.73
2019-05-10T11:13:44.087Z,1.10
2019-05-10T11:16:11.018Z,0.90
2019-05-10T11:18:35.408Z,1.03
2019-05-10T11:21:02.222Z,1.00
2019-05-10T11:23:33.976Z,0.83
2019-05-10T11:25:57.774Z,0.97
2019-05-10T11:28:32.097Z,1.00
2019-05-10T11:30:53.771Z,0.70
2019-05-10T11:33:29.220Z,0.70
2019-05-10T11:35:51.344Z,1.13
2019-05-10T11:38:18.288Z,0.80
2019-05-10T11:40:45.245Z,0.90
2019-05-10T11:43:11.988Z,1.10
2019-05-10T11:45:41.946Z,0.87
2019-05-10T11:48:07.405Z,1.00
2019-05-10T11:50:35.463Z,1.43
2019-05-10T11:53:07.035Z,1.43
2019-05-10T11:55:35.348Z,0.63
2019-05-10T11:58:08.486Z,1.10
2019-05-10T12:00:34.250Z,0.90
2019-05-10T12:05:31.791Z,0.57
2019-05-10T12:07:57.574Z,0.70
2019-05-10T12:10:25.567Z,0.60
2019-05-10T12:13:06.029Z,1.00
2019-05-10T12:15:25.342Z,0.93
2019-05-10T12:17:58.682Z,0.80
2019-05-10T12:20:26.920Z,0.97
2019-05-10T12:22:51.756Z,0.70
2019-05-10T12:25:37.564Z,0.70
2019-05-10T12:26:04.653Z,0.60
2019-05-10T12:27:49.065Z,1.00
2019-05-10T12:30:16.110Z,0.73
2019-05-10T12:32:55.528Z,1.00
2019-05-10T12:35:12.139Z,0.63
2019-05-10T12:37:39.408Z,0.60
2019-05-10T12:40:11.773Z,0.70
2019-05-10T12:42:36.953Z,0.90
2019-05-10T12:45:04.288Z,0.70
2019-05-10T12:47:33.661Z,0.70
2019-05-10T12:50:02.219Z,0.70
2019-05-10T12:52:31.432Z,0.73
2019-05-10T12:54:57.458Z,0.90
2019-05-10T12:57:24.179Z,0.93
2019-05-10T12:59:51.261Z,0.57
2019-05-10T13:02:17.933Z,1.07
2019-05-10T13:04:47.088Z,1.00
2019-05-10T13:07:13.528Z,0.90
2019-05-10T13:09:41.113Z,0.90
2019-05-10T13:12:08.091Z,0.93
2019-05-10T13:14:40.120Z,0.70
2019-05-10T13:17:09.129Z,0.83
2019-05-10T13:19:32.153Z,0.83
2019-05-10T13:22:00.734Z,0.97
2019-05-10T13:24:27.785Z,0.80
2019-05-10T13:26:55.108Z,1.47
2019-05-10T13:29:21.784Z,0.67
2019-05-10T13:31:48.466Z,0.97
2019-05-10T13:34:15.229Z,0.70
2019-05-10T13:36:41.927Z,0.90
2019-05-10T13:39:08.768Z,0.50
2019-05-10T13:41:35.472Z,0.80
2019-05-10T13:44:04.971Z,0.63
2019-05-10T13:46:31.080Z,1.13
2019-05-10T13:48:57.809Z,0.53
2019-05-10T13:51:24.717Z,0.90
2019-05-10T13:53:53.875Z,0.67
2019-05-10T13:56:20.303Z,0.97
2019-05-10T13:58:47.305Z,0.57
2019-05-10T14:01:14.875Z,1.30
2019-05-10T14:03:45.186Z,1.10
2019-05-10T14:06:10.591Z,1.40
2019-05-10T14:08:42.785Z,0.90
2019-05-10T14:11:06.353Z,0.60
2019-05-10T14:13:35.685Z,1.00
2019-05-10T14:16:02.353Z,1.13
2019-05-10T14:18:29.192Z,1.20
2019-05-10T14:20:56.251Z,1.00
2019-05-10T14:23:23.030Z,1.20
2019-05-10T14:25:49.720Z,1.30
2019-05-10T14:28:17.478Z,0.90
2019-05-10T14:30:46.350Z,0.60
2019-05-10T14:33:14.838Z,0.80
2019-05-10T14:35:41.877Z,0.70
2019-05-10T14:38:10.667Z,0.73
2019-05-10T14:40:37.625Z,0.90
2019-05-10T14:43:04.980Z,0.70
2019-05-10T14:45:31.671Z,0.60
2019-05-10T14:47:58.879Z,0.67
2019-05-10T14:50:28.266Z,0.50
2019-05-10T14:52:55.411Z,0.60
2019-05-10T14:55:22.493Z,0.70
2019-05-10T14:57:49.206Z,0.70
2019-05-10T15:00:16.299Z,0.97
2019-05-10T15:02:43.634Z,0.80
2019-05-10T15:05:16.140Z,0.97
2019-05-10T15:07:39.162Z,0.83
2019-05-10T15:10:06.265Z,0.60
2019-05-10T15:12:33.032Z,0.70
2019-05-10T15:14:59.973Z,0.87
2019-05-10T15:17:30.002Z,0.60
2019-05-10T15:19:59.616Z,0.60
2019-05-10T15:22:24.877Z,1.07
2019-05-10T15:24:51.716Z,0.70
2019-05-10T15:27:21.883Z,0.77
2019-05-10T15:29:47.376Z,0.67
2019-05-10T15:32:14.397Z,0.80
2019-05-10T15:34:41.079Z,0.90
2019-05-10T15:37:09.408Z,0.70
2019-05-10T15:39:36.536Z,0.90
2019-05-10T15:42:03.661Z,0.80
2019-05-10T15:44:31.685Z,0.50
2019-05-10T15:46:59.694Z,0.80
2019-05-10T15:49:27.048Z,0.90
2019-05-10T15:51:57.019Z,0.73
2019-05-10T15:54:22.526Z,0.63
2019-05-10T15:56:49.308Z,0.80
2019-05-10T15:59:19.294Z,1.20
2019-05-10T16:01:46.017Z,1.03
2019-05-10T16:04:13.332Z,0.70
2019-05-10T16:06:40.057Z,1.00
2019-05-10T16:09:16.851Z,1.03
2019-05-10T16:11:35.789Z,0.67
2019-05-10T16:14:02.991Z,0.70
2019-05-10T16:16:30.414Z,0.90
2019-05-10T16:18:58.437Z,1.10
2019-05-10T16:21:25.925Z,1.10
2019-05-10T16:23:52.893Z,1.13
2019-05-10T16:26:22.874Z,1.07
2019-05-10T16:28:53.134Z,1.13
2019-05-10T16:31:17.087Z,0.80
2019-05-10T16:33:48.286Z,1.00
2019-05-10T16:36:13.326Z,0.97
2019-05-10T16:38:40.003Z,0.77
2019-05-10T16:41:06.820Z,1.00
2019-05-10T16:43:33.509Z,0.97
2019-05-10T16:46:00.547Z,0.60
2019-05-10T16:48:28.388Z,0.93
2019-05-10T16:50:55.601Z,0.60
2019-05-10T16:53:22.399Z,0.70
2019-05-10T16:55:49.107Z,0.77
2019-05-10T16:58:17.980Z,0.97
2019-05-10T17:00:46.099Z,0.93
2019-05-10T17:03:18.357Z,0.50
2019-05-10T17:05:53.126Z,0.77
2019-05-10T17:08:11.358Z,0.80
2019-05-10T17:10:38.068Z,0.90
2019-05-10T17:13:06.542Z,1.00
2019-05-10T17:15:39.094Z,0.87
2019-05-10T17:18:02.360Z,0.67
2019-05-10T17:20:29.339Z,1.10
2019-05-10T17:23:07.977Z,1.60
2019-05-10T17:25:25.199Z,0.97
2019-05-10T17:27:57.663Z,0.70
2019-05-10T17:30:27.609Z,0.70
2019-05-10T17:32:50.579Z,1.00
2019-05-10T17:35:17.415Z,0.80
2019-05-10T17:37:44.139Z,0.90
2019-05-10T17:40:12.305Z,0.97
2019-05-10T17:42:41.100Z,1.00
2019-05-10T17:45:08.731Z,1.00
2019-05-10T17:47:35.450Z,0.80
2019-05-10T17:50:02.326Z,0.83
2019-05-10T17:52:29.171Z,0.73
2019-05-10T17:54:56.143Z,0.83
2019-05-10T17:57:23.133Z,0.80
2019-05-10T17:59:52.927Z,1.10
2019-05-10T18:02:18.431Z,0.80
2019-05-10T18:04:45.190Z,1.00
2019-05-10T18:07:11.973Z,1.13
2019-05-10T18:09:38.770Z,0.97
2019-05-10T18:12:05.635Z,0.80
2019-05-10T18:14:32.337Z,1.00
2019-05-10T18:16:59.310Z,1.00
2019-05-10T18:19:26.590Z,1.03
2019-05-10T18:21:54.817Z,1.10
2019-05-10T18:24:22.611Z,1.40
2019-05-10T18:26:49.617Z,1.30
2019-05-10T18:29:16.444Z,1.10
2019-05-10T18:31:54.636Z,1.10
2019-05-10T18:34:12.060Z,1.20
2019-05-10T18:36:54.405Z,1.10
2019-05-10T18:39:09.084Z,1.30
2019-05-10T18:41:41.299Z,1.27
2019-05-10T18:44:05.454Z,1.40
2019-05-10T18:46:32.153Z,1.00
2019-05-10T18:48:59.234Z,1.00
2019-05-10T18:51:26.469Z,1.00
2019-05-10T18:53:53.563Z,0.90
2019-05-10T18:56:25.182Z,1.30
2019-05-10T18:58:49.184Z,0.83
2019-05-10T19:01:15.888Z,1.13
2019-05-10T19:03:43.054Z,1.13
2019-05-10T19:06:13.094Z,1.13
2019-05-10T19:08:38.370Z,0.97
2019-05-10T19:11:05.595Z,1.13
2019-05-10T19:13:34.446Z,1.00
2019-05-10T19:16:01.504Z,1.03
2019-05-10T19:18:28.245Z,0.70
2019-05-10T19:20:55.330Z,0.80
2019-05-10T19:23:22.204Z,0.73
2019-05-10T19:25:51.684Z,0.87
2019-05-10T19:28:21.006Z,1.20
2019-05-10T19:30:46.505Z,0.90
2019-05-10T19:33:13.317Z,0.83
2019-05-10T19:35:40.251Z,1.00
2019-05-10T19:38:07.529Z,1.03
2019-05-10T19:40:34.289Z,0.90
2019-05-10T19:43:00.966Z,0.93
2019-05-10T19:45:30.925Z,0.70
2019-05-10T19:47:57.225Z,0.97
2019-05-10T19:50:30.933Z,0.80
2019-05-10T19:52:52.984Z,0.87
2019-05-10T19:55:21.710Z,0.93
2019-05-10T19:57:49.452Z,0.87
2019-05-10T20:00:18.125Z,0.80
2019-05-10T20:02:44.806Z,1.10
2019-05-10T20:05:11.749Z,1.07
2019-05-10T20:07:45.787Z,0.93
2019-05-10T20:10:08.209Z,1.20
2019-05-10T20:12:35.281Z,0.80
2019-05-10T20:15:02.616Z,1.27
2019-05-10T20:17:29.451Z,1.17
2019-05-10T20:19:56.355Z,1.03
2019-05-10T20:22:23.316Z,1.00
2019-05-10T20:24:50.111Z,1.00
2019-05-10T20:27:16.784Z,1.17
2019-05-10T20:29:43.803Z,1.17
2019-05-10T20:32:10.980Z,1.30
2019-05-10T20:34:38.178Z,1.40
2019-05-10T20:37:05.271Z,1.20
2019-05-10T20:39:31.987Z,1.40
2019-05-10T20:41:58.736Z,1.60
2019-05-10T20:44:25.426Z,1.40
2019-05-10T20:46:52.165Z,1.60
2019-05-10T20:49:19.009Z,1.93
2019-05-10T20:51:46.061Z,1.90
2019-05-10T20:54:12.933Z,1.30
2019-05-10T20:56:40.074Z,1.13
2019-05-10T20:59:07.050Z,1.47
2019-05-10T21:01:34.303Z,1.47
2019-05-10T21:04:01.259Z,1.00
2019-05-10T21:06:27.998Z,1.23
2019-05-10T21:08:54.979Z,1.43
2019-05-10T21:11:21.964Z,0.90
2019-05-10T21:13:48.684Z,1.03
2019-05-10T21:16:15.510Z,0.90
2019-05-10T21:18:42.226Z,1.20
2019-05-10T21:21:09.271Z,0.90
2019-05-10T21:23:35.961Z,1.00
2019-05-10T21:26:02.854Z,1.17
2019-05-10T21:28:29.582Z,1.00
2019-05-10T21:30:56.261Z,1.27
2019-05-10T21:33:24.129Z,1.33
2019-05-10T21:35:51.225Z,1.20
2019-05-10T21:38:31.882Z,1.10
2019-05-10T21:40:47.866Z,1.27
2019-05-10T21:43:14.577Z,1.00
2019-05-10T21:45:41.894Z,0.90
2019-05-10T21:48:08.944Z,1.10
2019-05-10T21:50:35.750Z,1.00
2019-05-10T21:53:02.528Z,1.00
2019-05-10T21:55:29.868Z,1.07
2019-05-10T21:57:57.253Z,1.00
2019-05-10T22:00:25.897Z,1.20
2019-05-10T22:02:53.010Z,1.20
2019-05-10T22:05:19.904Z,1.53
2019-05-10T22:07:46.997Z,1.60
2019-05-10T22:10:13.931Z,1.53
2019-05-10T22:12:40.665Z,1.80
2019-05-10T22:15:08.071Z,1.50
2019-05-10T22:17:35.445Z,1.20
2019-05-10T22:20:03.426Z,1.00
2019-05-10T22:22:30.457Z,1.23
2019-05-10T22:24:57.382Z,1.47
2019-05-10T22:27:24.159Z,1.30
2019-05-10T22:29:50.870Z,1.10
2019-05-10T22:32:18.083Z,1.00
2019-05-10T22:34:44.784Z,1.07
2019-05-10T22:37:11.502Z,1.20
2019-05-10T22:39:38.579Z,1.10
2019-05-10T22:42:05.576Z,1.20
2019-05-10T22:44:32.391Z,1.30
2019-05-10T22:46:59.395Z,1.37
2019-05-10T22:49:26.153Z,1.20
2019-05-10T22:51:52.852Z,1.13
2019-05-10T22:54:19.554Z,1.90
2019-05-10T22:56:46.271Z,0.90
2019-05-10T22:59:13.203Z,1.20
2019-05-10T23:01:40.247Z,1.33
2019-05-10T23:04:06.936Z,1.80
2019-05-10T23:06:33.918Z,1.63
2019-05-10T23:09:00.658Z,2.20
2019-05-10T23:11:27.646Z,1.10
2019-05-10T23:13:54.357Z,1.60
2019-05-10T23:16:21.284Z,1.50
2019-05-10T23:18:47.971Z,1.50
2019-05-10T23:21:14.697Z,1.73
2019-05-10T23:23:41.602Z,1.30
2019-05-10T23:26:08.543Z,1.30
2019-05-10T23:28:35.581Z,1.60
2019-05-10T23:31:02.721Z,2.20
2019-05-10T23:33:29.671Z,1.70
2019-05-10T23:35:56.347Z,1.90
2019-05-10T23:38:23.271Z,1.40
2019-05-10T23:40:50.251Z,1.53
2019-05-10T23:43:16.983Z,1.53
2019-05-10T23:45:43.673Z,1.40
2019-05-10T23:48:10.583Z,1.60
2019-05-10T23:50:37.289Z,1.50
2019-05-10T23:53:03.991Z,1.63
2019-05-10T23:55:30.973Z,1.60
2019-05-10T23:57:57.679Z,1.70
